Cinque Terre — IUTV — position and weather

sailwx.info

Track history (hours):
 
Tides and Currents Weather Stations Pressure Air Temp Water Temp Dewpoint Dewpoint Depression Visibility Wind Speed Wind Dir Waves Ship Positions

Cinque Terre

Last reported at 2016-May-30 08:11 UTC. Time now 2016-May-30 12:36 UTC.
Position N 40°34' E 014°16'.

Length 15 m; draft 1 m.

Type: Passenger vessel. MMSI: 247208400.

Date/timePositionNaut miles runAvg speedWind from/ knotsBaromVisibWave heightAir tempDewpointWater temp
2016-May-30 08:11N 40°34' E 014°16'1 1.1
2016-May-30 07:33N 40°33' E 014°16'7 6.7
2016-May-30 06:33N 40°38' E 014°21'2 0.1
2016-May-29 15:32N 40°37' E 014°20'8 6.9
2016-May-29 14:25N 40°32' E 014°12'3 3.4
2016-May-29 13:33N 40°34' E 014°15'1 0.1
2016-May-29 08:04N 40°34' E 014°16'0 0.7
2016-May-29 07:33N 40°34' E 014°15'5 0.3
2016-May-28 16:18N 40°37' E 014°20'0 0.5
2016-May-28 15:33N 40°36' E 014°20'6 6.3
2016-May-28 14:33N 40°32' E 014°13'1 0.5
2016-May-28 12:30N 40°33' E 014°15'0 0.0
2016-May-28 11:33N 40°33' E 014°15'0 0.0
2016-May-28 10:33N 40°33' E 014°15'1 0.6
2016-May-28 08:23N 40°33' E 014°16'1 1.2
2016-May-28 07:32N 40°34' E 014°16'3 0.2
2016-May-27 16:22N 40°37' E 014°20'1 1.3
2016-May-27 15:33N 40°36' E 014°19'3 2.5
2016-May-27 14:11N 40°33' E 014°16'1 1.0
2016-May-27 13:33N 40°34' E 014°15'1 0.3
2016-May-27 08:28N 40°32' E 014°15'3 3.1
2016-May-27 07:33N 40°35' E 014°17'5 4.4
2016-May-27 06:29N 40°38' E 014°21'4 0.2
2016-May-26 15:34N 40°35' E 014°18'4 3.7
2016-May-26 14:33N 40°33' E 014°15'1 1.1
2016-May-26 13:33N 40°34' E 014°15'1 0.2
2016-May-26 09:30N 40°33' E 014°16'0 0.0
2016-May-26 08:33N 40°33' E 014°16'2 1.8
2016-May-26 07:33N 40°35' E 014°17'3 2.5
2016-May-26 06:15N 40°37' E 014°20'  
2016-May-22 16:32N 40°37' E 014°20'1 1.3
2016-May-22 15:34N 40°36' E 014°19'5 4.7
2016-May-22 14:34N 40°33' E 014°14'1 1.4
2016-May-22 13:34N 40°34' E 014°15'1 0.3
2016-May-22 08:33N 40°33' E 014°14'6 0.4
2016-May-21 15:33N 40°37' E 014°20'7 7.1
2016-May-21 14:32N 40°32' E 014°13'3 2.9
2016-May-21 13:33N 40°34' E 014°16'2 0.3
2016-May-21 08:22N 40°33' E 014°15'3 3.8
2016-May-21 07:33N 40°35' E 014°17'3 0.2
2016-May-20 16:33N 40°37' E 014°20'3 2.6
2016-May-20 15:33N 40°38' E 014°22'8 8.4
2016-May-20 14:34N 40°32' E 014°15'2 1.5
2016-May-20 13:33N 40°34' E 014°16'1 0.6
2016-May-20 12:31N 40°33' E 014°16'0 0.0
2016-May-20 10:24N 40°33' E 014°16'0 0.0
2016-May-20 09:28N 40°33' E 014°16'0 0.0
2016-May-20 08:33N 40°33' E 014°16'  
Track history (hours):
 
Tides and Currents Weather Stations Pressure Air Temp Water Temp Dewpoint Dewpoint Depression Visibility Wind Speed Wind Dir Waves Ship Positions

Cinque Terre

Last reported at 2016-May-30 08:11 UTC. Time now 2016-May-30 12:36 UTC.
Position N 40°34' E 014°16'.

Length 15 m; draft 1 m.

Type: Passenger vessel. MMSI: 247208400.

Date/timePositionNaut miles runAvg speedWind from/ knotsBaromVisibWave heightAir tempDewpointWater temp
2016-May-30 08:11N 40°34' E 014°16'1 1.1
2016-May-30 07:33N 40°33' E 014°16'7 6.7
2016-May-30 06:33N 40°38' E 014°21'2 0.1
2016-May-29 15:32N 40°37' E 014°20'8 6.9
2016-May-29 14:25N 40°32' E 014°12'3 3.4
2016-May-29 13:33N 40°34' E 014°15'1 0.1
2016-May-29 08:04N 40°34' E 014°16'0 0.7
2016-May-29 07:33N 40°34' E 014°15'5 0.3
2016-May-28 16:18N 40°37' E 014°20'0 0.5
2016-May-28 15:33N 40°36' E 014°20'6 6.3
2016-May-28 14:33N 40°32' E 014°13'1 0.5
2016-May-28 12:30N 40°33' E 014°15'0 0.0
2016-May-28 11:33N 40°33' E 014°15'0 0.0
2016-May-28 10:33N 40°33' E 014°15'1 0.6
2016-May-28 08:23N 40°33' E 014°16'1 1.2
2016-May-28 07:32N 40°34' E 014°16'3 0.2
2016-May-27 16:22N 40°37' E 014°20'1 1.3
2016-May-27 15:33N 40°36' E 014°19'3 2.5
2016-May-27 14:11N 40°33' E 014°16'1 1.0
2016-May-27 13:33N 40°34' E 014°15'1 0.3
2016-May-27 08:28N 40°32' E 014°15'3 3.1
2016-May-27 07:33N 40°35' E 014°17'5 4.4
2016-May-27 06:29N 40°38' E 014°21'4 0.2
2016-May-26 15:34N 40°35' E 014°18'4 3.7
2016-May-26 14:33N 40°33' E 014°15'1 1.1
2016-May-26 13:33N 40°34' E 014°15'1 0.2
2016-May-26 09:30N 40°33' E 014°16'0 0.0
2016-May-26 08:33N 40°33' E 014°16'2 1.8
2016-May-26 07:33N 40°35' E 014°17'3 2.5
2016-May-26 06:15N 40°37' E 014°20'  
2016-May-22 16:32N 40°37' E 014°20'1 1.3
2016-May-22 15:34N 40°36' E 014°19'5 4.7
2016-May-22 14:34N 40°33' E 014°14'1 1.4
2016-May-22 13:34N 40°34' E 014°15'1 0.3
2016-May-22 08:33N 40°33' E 014°14'6 0.4
2016-May-21 15:33N 40°37' E 014°20'7 7.1
2016-May-21 14:32N 40°32' E 014°13'3 2.9
2016-May-21 13:33N 40°34' E 014°16'2 0.3
2016-May-21 08:22N 40°33' E 014°15'3 3.8
2016-May-21 07:33N 40°35' E 014°17'3 0.2
2016-May-20 16:33N 40°37' E 014°20'3 2.6
2016-May-20 15:33N 40°38' E 014°22'8 8.4
2016-May-20 14:34N 40°32' E 014°15'2 1.5
2016-May-20 13:33N 40°34' E 014°16'1 0.6
2016-May-20 12:31N 40°33' E 014°16'0 0.0
2016-May-20 10:24N 40°33' E 014°16'0 0.0
2016-May-20 09:28N 40°33' E 014°16'0 0.0
2016-May-20 08:33N 40°33' E 014°16'  

Dump ship's entire track history